sensor_id;sensor_type;location;lat;lon;timestamp;temperature;humidity
68450;SHT30;55434;39.570;2.652;2022-12-07T00:03:44;13.52;92.51
68450;SHT30;55434;39.570;2.652;2022-12-07T00:06:12;13.54;92.35
68450;SHT30;55434;39.570;2.652;2022-12-07T00:08:39;13.50;92.43
68450;SHT30;55434;39.570;2.652;2022-12-07T00:11:16;13.52;92.56
68450;SHT30;55434;39.570;2.652;2022-12-07T00:13:43;13.52;92.42
68450;SHT30;55434;39.570;2.652;2022-12-07T00:16:11;13.57;92.38
68450;SHT30;55434;39.570;2.652;2022-12-07T00:18:37;13.55;92.44
68450;SHT30;55434;39.570;2.652;2022-12-07T00:21:05;13.64;92.30
68450;SHT30;55434;39.570;2.652;2022-12-07T00:23:32;13.71;92.07
68450;SHT30;55434;39.570;2.652;2022-12-07T00:26:06;13.71;92.15
68450;SHT30;55434;39.570;2.652;2022-12-07T00:28:33;13.74;91.78
68450;SHT30;55434;39.570;2.652;2022-12-07T00:31:12;13.74;91.67
68450;SHT30;55434;39.570;2.652;2022-12-07T00:33:38;13.72;91.51
68450;SHT30;55434;39.570;2.652;2022-12-07T00:36:07;13.82;91.48
68450;SHT30;55434;39.570;2.652;2022-12-07T00:38:34;13.83;90.95
68450;SHT30;55434;39.570;2.652;2022-12-07T00:41:03;13.83;90.58
68450;SHT30;55434;39.570;2.652;2022-12-07T00:43:29;13.76;90.01
68450;SHT30;55434;39.570;2.652;2022-12-07T00:45:55;13.58;90.06
68450;SHT30;55434;39.570;2.652;2022-12-07T00:48:21;13.37;90.49
68450;SHT30;55434;39.570;2.652;2022-12-07T00:50:48;13.28;90.85
68450;SHT30;55434;39.570;2.652;2022-12-07T00:53:14;13.20;91.18
68450;SHT30;55434;39.570;2.652;2022-12-07T00:55:40;13.25;91.26
68450;SHT30;55434;39.570;2.652;2022-12-07T00:58:06;13.25;91.22
68450;SHT30;55434;39.570;2.652;2022-12-07T01:00:32;13.21;91.26
68450;SHT30;55434;39.570;2.652;2022-12-07T01:02:59;13.14;91.32
68450;SHT30;55434;39.570;2.652;2022-12-07T01:05:24;13.11;91.25
68450;SHT30;55434;39.570;2.652;2022-12-07T01:07:50;13.14;91.24
68450;SHT30;55434;39.570;2.652;2022-12-07T01:10:16;13.10;91.40
68450;SHT30;55434;39.570;2.652;2022-12-07T01:12:41;13.14;91.38
68450;SHT30;55434;39.570;2.652;2022-12-07T01:15:08;13.10;91.61
68450;SHT30;55434;39.570;2.652;2022-12-07T01:17:34;13.11;91.65
68450;SHT30;55434;39.570;2.652;2022-12-07T01:20:00;13.11;91.74
68450;SHT30;55434;39.570;2.652;2022-12-07T01:22:26;13.13;91.72
68450;SHT30;55434;39.570;2.652;2022-12-07T01:24:52;13.15;91.70
68450;SHT30;55434;39.570;2.652;2022-12-07T01:27:18;13.18;91.60
68450;SHT30;55434;39.570;2.652;2022-12-07T01:29:43;13.20;91.49
68450;SHT30;55434;39.570;2.652;2022-12-07T01:32:10;13.24;91.26
68450;SHT30;55434;39.570;2.652;2022-12-07T01:34:35;13.24;91.24
68450;SHT30;55434;39.570;2.652;2022-12-07T01:37:01;13.18;91.25
68450;SHT30;55434;39.570;2.652;2022-12-07T01:39:26;13.21;91.27
68450;SHT30;55434;39.570;2.652;2022-12-07T01:41:52;13.21;91.26
68450;SHT30;55434;39.570;2.652;2022-12-07T01:44:29;13.20;91.39
68450;SHT30;55434;39.570;2.652;2022-12-07T01:47:04;13.25;91.27
68450;SHT30;55434;39.570;2.652;2022-12-07T01:52:12;13.28;91.13
68450;SHT30;55434;39.570;2.652;2022-12-07T01:54:39;13.27;91.08
68450;SHT30;55434;39.570;2.652;2022-12-07T01:57:06;13.30;91.05
68450;SHT30;55434;39.570;2.652;2022-12-07T01:59:33;13.31;90.95
68450;SHT30;55434;39.570;2.652;2022-12-07T02:02:01;13.30;90.97
68450;SHT30;55434;39.570;2.652;2022-12-07T02:04:28;13.37;90.74
68450;SHT30;55434;39.570;2.652;2022-12-07T02:06:54;13.34;90.78
68450;SHT30;55434;39.570;2.652;2022-12-07T02:09:20;13.35;90.73
68450;SHT30;55434;39.570;2.652;2022-12-07T02:11:46;13.34;90.76
68450;SHT30;55434;39.570;2.652;2022-12-07T02:14:12;13.34;90.74
68450;SHT30;55434;39.570;2.652;2022-12-07T02:16:44;13.35;90.65
68450;SHT30;55434;39.570;2.652;2022-12-07T02:21:52;13.40;90.63
68450;SHT30;55434;39.570;2.652;2022-12-07T02:32:25;13.68;90.00
68450;SHT30;55434;39.570;2.652;2022-12-07T02:35:15;13.69;89.73
68450;SHT30;55434;39.570;2.652;2022-12-07T02:38:07;13.69;89.82
68450;SHT30;55434;39.570;2.652;2022-12-07T02:40:44;13.62;89.64
68450;SHT30;55434;39.570;2.652;2022-12-07T02:43:17;13.57;89.81
68450;SHT30;55434;39.570;2.652;2022-12-07T02:45:44;13.57;89.98
68450;SHT30;55434;39.570;2.652;2022-12-07T02:48:13;13.48;89.64
68450;SHT30;55434;39.570;2.652;2022-12-07T02:50:50;13.47;89.50
68450;SHT30;55434;39.570;2.652;2022-12-07T02:53:32;13.47;89.36
68450;SHT30;55434;39.570;2.652;2022-12-07T02:56:03;13.41;89.57
68450;SHT30;55434;39.570;2.652;2022-12-07T03:07:05;13.54;89.64
68450;SHT30;55434;39.570;2.652;2022-12-07T03:09:45;13.57;89.58
68450;SHT30;55434;39.570;2.652;2022-12-07T03:12:44;13.62;89.57
68450;SHT30;55434;39.570;2.652;2022-12-07T03:15:22;13.65;89.56
68450;SHT30;55434;39.570;2.652;2022-12-07T03:17:52;13.61;89.68
68450;SHT30;55434;39.570;2.652;2022-12-07T03:20:23;13.55;89.96
68450;SHT30;55434;39.570;2.652;2022-12-07T03:22:51;13.50;90.22
68450;SHT30;55434;39.570;2.652;2022-12-07T03:25:19;13.44;90.42
68450;SHT30;55434;39.570;2.652;2022-12-07T03:27:57;13.41;90.61
68450;SHT30;55434;39.570;2.652;2022-12-07T03:30:37;13.37;90.74
68450;SHT30;55434;39.570;2.652;2022-12-07T03:33:13;13.32;90.89
68450;SHT30;55434;39.570;2.652;2022-12-07T03:38:36;13.27;91.26
68450;SHT30;55434;39.570;2.652;2022-12-07T03:41:07;13.27;91.37
68450;SHT30;55434;39.570;2.652;2022-12-07T03:43:35;13.20;91.40
68450;SHT30;55434;39.570;2.652;2022-12-07T03:51:37;13.01;91.50
68450;SHT30;55434;39.570;2.652;2022-12-07T03:54:10;12.93;91.83
68450;SHT30;55434;39.570;2.652;2022-12-07T03:56:36;12.90;92.07
68450;SHT30;55434;39.570;2.652;2022-12-07T03:59:03;12.87;92.22
68450;SHT30;55434;39.570;2.652;2022-12-07T04:01:58;12.86;92.37
68450;SHT30;55434;39.570;2.652;2022-12-07T04:04:45;12.84;92.37
68450;SHT30;55434;39.570;2.652;2022-12-07T04:07:30;12.89;92.35
68450;SHT30;55434;39.570;2.652;2022-12-07T04:10:14;12.86;92.48
68450;SHT30;55434;39.570;2.652;2022-12-07T04:12:59;12.84;92.53
68450;SHT30;55434;39.570;2.652;2022-12-07T04:15:43;12.87;92.70
68450;SHT30;55434;39.570;2.652;2022-12-07T04:18:27;12.87;92.76
68450;SHT30;55434;39.570;2.652;2022-12-07T04:21:11;12.89;92.66
68450;SHT30;55434;39.570;2.652;2022-12-07T04:23:55;12.87;92.68
68450;SHT30;55434;39.570;2.652;2022-12-07T04:26:40;12.81;92.79
68450;SHT30;55434;39.570;2.652;2022-12-07T04:29:24;12.83;92.82
68450;SHT30;55434;39.570;2.652;2022-12-07T04:32:09;12.80;92.87
68450;SHT30;55434;39.570;2.652;2022-12-07T04:34:53;12.80;92.84
68450;SHT30;55434;39.570;2.652;2022-12-07T04:37:37;12.81;92.79
68450;SHT30;55434;39.570;2.652;2022-12-07T04:40:23;12.81;93.00
68450;SHT30;55434;39.570;2.652;2022-12-07T04:43:07;12.73;92.84
68450;SHT30;55434;39.570;2.652;2022-12-07T04:45:51;12.70;92.92
68450;SHT30;55434;39.570;2.652;2022-12-07T04:48:35;12.76;93.24
68450;SHT30;55434;39.570;2.652;2022-12-07T04:51:25;12.67;93.08
68450;SHT30;55434;39.570;2.652;2022-12-07T04:54:10;12.57;92.86
68450;SHT30;55434;39.570;2.652;2022-12-07T04:56:54;12.52;93.03
68450;SHT30;55434;39.570;2.652;2022-12-07T04:59:38;12.43;93.18
68450;SHT30;55434;39.570;2.652;2022-12-07T05:02:22;12.40;93.44
68450;SHT30;55434;39.570;2.652;2022-12-07T05:05:06;12.38;93.55
68450;SHT30;55434;39.570;2.652;2022-12-07T05:07:50;12.36;93.64
68450;SHT30;55434;39.570;2.652;2022-12-07T05:10:34;12.35;93.57
68450;SHT30;55434;39.570;2.652;2022-12-07T05:13:18;12.30;93.76
68450;SHT30;55434;39.570;2.652;2022-12-07T05:16:03;12.24;93.85
68450;SHT30;55434;39.570;2.652;2022-12-07T05:18:47;12.18;93.71
68450;SHT30;55434;39.570;2.652;2022-12-07T05:21:31;12.15;93.61
68450;SHT30;55434;39.570;2.652;2022-12-07T05:24:16;12.09;93.43
68450;SHT30;55434;39.570;2.652;2022-12-07T05:27:00;12.01;93.37
68450;SHT30;55434;39.570;2.652;2022-12-07T05:29:44;11.95;93.58
68450;SHT30;55434;39.570;2.652;2022-12-07T05:32:28;11.88;93.68
68450;SHT30;55434;39.570;2.652;2022-12-07T05:35:12;11.91;94.10
68450;SHT30;55434;39.570;2.652;2022-12-07T05:37:56;11.95;94.35
68450;SHT30;55434;39.570;2.652;2022-12-07T05:40:41;11.94;94.24
68450;SHT30;55434;39.570;2.652;2022-12-07T05:43:25;11.97;94.44
68450;SHT30;55434;39.570;2.652;2022-12-07T05:46:09;12.08;94.51
68450;SHT30;55434;39.570;2.652;2022-12-07T05:48:53;12.15;94.35
68450;SHT30;55434;39.570;2.652;2022-12-07T05:51:37;12.21;94.17
68450;SHT30;55434;39.570;2.652;2022-12-07T05:54:21;12.22;93.98
68450;SHT30;55434;39.570;2.652;2022-12-07T05:57:05;12.26;93.96
68450;SHT30;55434;39.570;2.652;2022-12-07T05:59:50;12.28;93.90
68450;SHT30;55434;39.570;2.652;2022-12-07T06:02:34;12.30;93.84
68450;SHT30;55434;39.570;2.652;2022-12-07T06:05:18;12.29;93.78
68450;SHT30;55434;39.570;2.652;2022-12-07T06:08:02;12.26;93.87
68450;SHT30;55434;39.570;2.652;2022-12-07T06:10:47;12.24;93.95
68450;SHT30;55434;39.570;2.652;2022-12-07T06:13:52;12.29;93.91
68450;SHT30;55434;39.570;2.652;2022-12-07T06:16:36;12.28;93.91
68450;SHT30;55434;39.570;2.652;2022-12-07T06:19:02;12.25;94.00
68450;SHT30;55434;39.570;2.652;2022-12-07T06:21:28;12.22;93.99
68450;SHT30;55434;39.570;2.652;2022-12-07T06:23:54;12.24;94.07
68450;SHT30;55434;39.570;2.652;2022-12-07T06:26:19;12.26;94.00
68450;SHT30;55434;39.570;2.652;2022-12-07T06:28:45;12.25;94.04
68450;SHT30;55434;39.570;2.652;2022-12-07T06:31:10;12.24;93.97
68450;SHT30;55434;39.570;2.652;2022-12-07T06:33:36;12.24;94.00
68450;SHT30;55434;39.570;2.652;2022-12-07T06:36:02;12.19;94.16
68450;SHT30;55434;39.570;2.652;2022-12-07T06:38:27;12.19;94.27
68450;SHT30;55434;39.570;2.652;2022-12-07T06:40:53;12.21;94.28
68450;SHT30;55434;39.570;2.652;2022-12-07T06:43:22;12.24;94.32
68450;SHT30;55434;39.570;2.652;2022-12-07T06:45:47;12.18;94.21
68450;SHT30;55434;39.570;2.652;2022-12-07T06:48:14;12.21;94.25
68450;SHT30;55434;39.570;2.652;2022-12-07T06:50:40;12.18;94.31
68450;SHT30;55434;39.570;2.652;2022-12-07T06:53:05;12.19;94.32
68450;SHT30;55434;39.570;2.652;2022-12-07T06:55:31;12.19;94.31
68450;SHT30;55434;39.570;2.652;2022-12-07T06:57:58;12.21;94.46
68450;SHT30;55434;39.570;2.652;2022-12-07T07:00:31;12.29;94.29
68450;SHT30;55434;39.570;2.652;2022-12-07T07:02:57;12.25;93.95
68450;SHT30;55434;39.570;2.652;2022-12-07T07:05:23;12.26;94.06
68450;SHT30;55434;39.570;2.652;2022-12-07T07:07:49;12.24;94.09
68450;SHT30;55434;39.570;2.652;2022-12-07T07:10:15;12.25;93.85
68450;SHT30;55434;39.570;2.652;2022-12-07T07:12:41;12.24;93.04
68450;SHT30;55434;39.570;2.652;2022-12-07T07:15:09;12.09;92.40
68450;SHT30;55434;39.570;2.652;2022-12-07T07:17:35;11.98;92.09
68450;SHT30;55434;39.570;2.652;2022-12-07T07:20:00;11.92;92.08
68450;SHT30;55434;39.570;2.652;2022-12-07T07:22:26;11.85;92.33
68450;SHT30;55434;39.570;2.652;2022-12-07T07:24:52;11.89;92.48
68450;SHT30;55434;39.570;2.652;2022-12-07T07:27:17;11.92;92.62
68450;SHT30;55434;39.570;2.652;2022-12-07T07:29:43;11.99;92.80
68450;SHT30;55434;39.570;2.652;2022-12-07T07:32:09;12.05;92.67
68450;SHT30;55434;39.570;2.652;2022-12-07T07:34:34;12.12;92.73
68450;SHT30;55434;39.570;2.652;2022-12-07T07:37:00;12.22;92.96
68450;SHT30;55434;39.570;2.652;2022-12-07T07:39:26;12.29;92.93
68450;SHT30;55434;39.570;2.652;2022-12-07T07:41:51;12.40;92.82
68450;SHT30;55434;39.570;2.652;2022-12-07T07:44:17;12.48;92.65
68450;SHT30;55434;39.570;2.652;2022-12-07T07:46:43;12.57;92.27
68450;SHT30;55434;39.570;2.652;2022-12-07T07:49:10;12.66;92.23
68450;SHT30;55434;39.570;2.652;2022-12-07T07:51:36;12.73;92.03
68450;SHT30;55434;39.570;2.652;2022-12-07T07:54:03;12.84;91.92
68450;SHT30;55434;39.570;2.652;2022-12-07T07:56:29;12.90;91.52
68450;SHT30;55434;39.570;2.652;2022-12-07T07:58:55;13.00;91.10
68450;SHT30;55434;39.570;2.652;2022-12-07T08:01:21;13.10;90.72
68450;SHT30;55434;39.570;2.652;2022-12-07T08:03:47;13.17;90.30
68450;SHT30;55434;39.570;2.652;2022-12-07T08:06:12;13.24;89.91
68450;SHT30;55434;39.570;2.652;2022-12-07T08:08:38;13.31;89.68
68450;SHT30;55434;39.570;2.652;2022-12-07T08:11:08;13.42;89.23
68450;SHT30;55434;39.570;2.652;2022-12-07T08:13:36;13.42;89.16
68450;SHT30;55434;39.570;2.652;2022-12-07T08:16:09;13.47;88.98
68450;SHT30;55434;39.570;2.652;2022-12-07T08:18:36;13.54;89.07
68450;SHT30;55434;39.570;2.652;2022-12-07T08:21:02;13.55;88.83
68450;SHT30;55434;39.570;2.652;2022-12-07T08:23:29;13.58;88.58
68450;SHT30;55434;39.570;2.652;2022-12-07T08:25:55;13.64;88.31
68450;SHT30;55434;39.570;2.652;2022-12-07T08:28:30;13.52;88.21
68450;SHT30;55434;39.570;2.652;2022-12-07T08:31:12;13.51;88.20
68450;SHT30;55434;39.570;2.652;2022-12-07T08:33:39;13.58;88.22
68450;SHT30;55434;39.570;2.652;2022-12-07T08:36:10;13.66;87.87
68450;SHT30;55434;39.570;2.652;2022-12-07T08:38:41;13.72;87.58
68450;SHT30;55434;39.570;2.652;2022-12-07T08:41:10;13.72;87.41
68450;SHT30;55434;39.570;2.652;2022-12-07T08:43:36;13.86;87.25
68450;SHT30;55434;39.570;2.652;2022-12-07T08:46:16;13.89;87.01
68450;SHT30;55434;39.570;2.652;2022-12-07T08:48:55;13.92;86.93
68450;SHT30;55434;39.570;2.652;2022-12-07T08:51:23;13.93;87.07
68450;SHT30;55434;39.570;2.652;2022-12-07T08:53:50;13.93;86.81
68450;SHT30;55434;39.570;2.652;2022-12-07T08:56:24;13.98;86.71
68450;SHT30;55434;39.570;2.652;2022-12-07T08:58:50;14.05;86.57
68450;SHT30;55434;39.570;2.652;2022-12-07T09:01:16;14.08;86.52
68450;SHT30;55434;39.570;2.652;2022-12-07T09:03:41;14.13;86.44
68450;SHT30;55434;39.570;2.652;2022-12-07T09:06:07;14.25;86.19
68450;SHT30;55434;39.570;2.652;2022-12-07T09:08:37;14.32;85.94
68450;SHT30;55434;39.570;2.652;2022-12-07T09:11:03;14.43;85.70
68450;SHT30;55434;39.570;2.652;2022-12-07T09:13:29;14.53;85.16
68450;SHT30;55434;39.570;2.652;2022-12-07T09:15:54;14.59;85.09
68450;SHT30;55434;39.570;2.652;2022-12-07T09:18:20;14.73;84.80
68450;SHT30;55434;39.570;2.652;2022-12-07T09:20:46;14.95;84.33
68450;SHT30;55434;39.570;2.652;2022-12-07T09:23:11;15.02;83.95
68450;SHT30;55434;39.570;2.652;2022-12-07T09:26:03;15.18;83.52
68450;SHT30;55434;39.570;2.652;2022-12-07T09:28:31;15.32;83.11
68450;SHT30;55434;39.570;2.652;2022-12-07T09:30:58;15.46;82.70
68450;SHT30;55434;39.570;2.652;2022-12-07T09:33:28;15.43;82.62
68450;SHT30;55434;39.570;2.652;2022-12-07T09:35:54;15.46;82.38
68450;SHT30;55434;39.570;2.652;2022-12-07T09:38:21;15.59;82.03
68450;SHT30;55434;39.570;2.652;2022-12-07T09:40:56;15.55;81.82
68450;SHT30;55434;39.570;2.652;2022-12-07T09:43:24;15.60;81.77
68450;SHT30;55434;39.570;2.652;2022-12-07T09:45:53;15.49;82.16
68450;SHT30;55434;39.570;2.652;2022-12-07T09:48:39;15.59;82.18
68450;SHT30;55434;39.570;2.652;2022-12-07T09:51:22;15.60;82.13
68450;SHT30;55434;39.570;2.652;2022-12-07T09:53:52;15.63;82.15
68450;SHT30;55434;39.570;2.652;2022-12-07T09:56:30;15.69;81.98
68450;SHT30;55434;39.570;2.652;2022-12-07T09:59:01;15.70;82.15
68450;SHT30;55434;39.570;2.652;2022-12-07T10:01:29;15.85;81.91
68450;SHT30;55434;39.570;2.652;2022-12-07T10:06:32;16.03;81.17
68450;SHT30;55434;39.570;2.652;2022-12-07T10:08:58;16.06;80.90
68450;SHT30;55434;39.570;2.652;2022-12-07T10:11:24;16.04;80.99
68450;SHT30;55434;39.570;2.652;2022-12-07T10:13:52;16.10;81.01
68450;SHT30;55434;39.570;2.652;2022-12-07T10:18:52;16.11;81.05
68450;SHT30;55434;39.570;2.652;2022-12-07T10:21:20;16.28;80.76
68450;SHT30;55434;39.570;2.652;2022-12-07T10:26:53;16.47;79.97
68450;SHT30;55434;39.570;2.652;2022-12-07T10:29:37;16.48;79.76
68450;SHT30;55434;39.570;2.652;2022-12-07T10:34:50;16.51;79.57
68450;SHT30;55434;39.570;2.652;2022-12-07T10:37:18;16.31;79.66
68450;SHT30;55434;39.570;2.652;2022-12-07T10:39:55;16.52;79.50
68450;SHT30;55434;39.570;2.652;2022-12-07T10:45:07;16.54;79.85
68450;SHT30;55434;39.570;2.652;2022-12-07T10:50:52;16.54;79.83
68450;SHT30;55434;39.570;2.652;2022-12-07T10:53:42;16.82;79.35
68450;SHT30;55434;39.570;2.652;2022-12-07T10:59:34;16.93;78.42
68450;SHT30;55434;39.570;2.652;2022-12-07T11:02:23;16.96;78.06
68450;SHT30;55434;39.570;2.652;2022-12-07T11:05:05;17.05;77.86
68450;SHT30;55434;39.570;2.652;2022-12-07T11:10:58;17.20;77.26
68450;SHT30;55434;39.570;2.652;2022-12-07T11:22:05;18.01;74.44
68450;SHT30;55434;39.570;2.652;2022-12-07T11:27:47;18.49;73.05
68450;SHT30;55434;39.570;2.652;2022-12-07T11:30:20;18.67;72.50
68450;SHT30;55434;39.570;2.652;2022-12-07T11:32:56;18.44;72.58
68450;SHT30;55434;39.570;2.652;2022-12-07T11:36:07;18.51;72.20
68450;SHT30;55434;39.570;2.652;2022-12-07T11:39:06;18.70;71.61
68450;SHT30;55434;39.570;2.652;2022-12-07T11:41:38;18.56;72.32
68450;SHT30;55434;39.570;2.652;2022-12-07T11:49:43;18.73;70.55
68450;SHT30;55434;39.570;2.652;2022-12-07T11:52:30;18.65;70.89
68450;SHT30;55434;39.570;2.652;2022-12-07T11:54:58;18.85;70.41
68450;SHT30;55434;39.570;2.652;2022-12-07T11:57:41;18.75;70.81
68450;SHT30;55434;39.570;2.652;2022-12-07T12:00:16;18.89;70.53
68450;SHT30;55434;39.570;2.652;2022-12-07T12:03:08;18.95;69.59
68450;SHT30;55434;39.570;2.652;2022-12-07T12:05:35;19.07;69.63
68450;SHT30;55434;39.570;2.652;2022-12-07T12:08:04;19.30;69.55
68450;SHT30;55434;39.570;2.652;2022-12-07T12:10:40;19.14;69.23
68450;SHT30;55434;39.570;2.652;2022-12-07T12:21:49;19.41;68.71
68450;SHT30;55434;39.570;2.652;2022-12-07T12:24:23;19.57;68.05
68450;SHT30;55434;39.570;2.652;2022-12-07T12:26:58;19.17;68.28
68450;SHT30;55434;39.570;2.652;2022-12-07T12:29:38;19.08;68.75
68450;SHT30;55434;39.570;2.652;2022-12-07T12:32:38;19.48;68.55
68450;SHT30;55434;39.570;2.652;2022-12-07T12:37:53;19.37;68.56
68450;SHT30;55434;39.570;2.652;2022-12-07T12:42:57;19.24;68.19
68450;SHT30;55434;39.570;2.652;2022-12-07T12:45:28;19.27;68.29
68450;SHT30;55434;39.570;2.652;2022-12-07T12:48:04;18.93;68.43
68450;SHT30;55434;39.570;2.652;2022-12-07T12:50:32;18.99;68.64
68450;SHT30;55434;39.570;2.652;2022-12-07T12:53:42;19.17;69.09
68450;SHT30;55434;39.570;2.652;2022-12-07T12:55:54;19.00;69.67
68450;SHT30;55434;39.570;2.652;2022-12-07T12:58:33;19.02;69.93
68450;SHT30;55434;39.570;2.652;2022-12-07T13:04:16;18.95;69.78
68450;SHT30;55434;39.570;2.652;2022-12-07T13:06:43;18.97;69.52
68450;SHT30;55434;39.570;2.652;2022-12-07T13:09:30;19.11;69.00
68450;SHT30;55434;39.570;2.652;2022-12-07T13:12:01;19.04;69.61
68450;SHT30;55434;39.570;2.652;2022-12-07T13:17:05;18.89;70.31
68450;SHT30;55434;39.570;2.652;2022-12-07T13:27:38;18.41;71.34
68450;SHT30;55434;39.570;2.652;2022-12-07T13:30:14;18.31;71.48
68450;SHT30;55434;39.570;2.652;2022-12-07T13:32:40;18.26;71.51
68450;SHT30;55434;39.570;2.652;2022-12-07T13:35:35;18.21;71.84
68450;SHT30;55434;39.570;2.652;2022-12-07T13:38:13;18.12;71.37
68450;SHT30;55434;39.570;2.652;2022-12-07T13:40:40;18.14;72.09
68450;SHT30;55434;39.570;2.652;2022-12-07T13:43:13;18.15;71.74
68450;SHT30;55434;39.570;2.652;2022-12-07T13:45:41;18.02;72.43
68450;SHT30;55434;39.570;2.652;2022-12-07T13:48:31;17.98;72.33
68450;SHT30;55434;39.570;2.652;2022-12-07T13:51:02;17.77;72.77
68450;SHT30;55434;39.570;2.652;2022-12-07T13:53:28;17.70;72.92
68450;SHT30;55434;39.570;2.652;2022-12-07T13:56:00;17.66;73.51
68450;SHT30;55434;39.570;2.652;2022-12-07T13:58:30;17.60;73.58
68450;SHT30;55434;39.570;2.652;2022-12-07T14:00:57;17.43;74.49
68450;SHT30;55434;39.570;2.652;2022-12-07T14:03:31;17.40;74.91
68450;SHT30;55434;39.570;2.652;2022-12-07T14:06:20;17.53;74.41
68450;SHT30;55434;39.570;2.652;2022-12-07T14:08:47;17.50;74.27
68450;SHT30;55434;39.570;2.652;2022-12-07T14:11:19;17.46;74.17
68450;SHT30;55434;39.570;2.652;2022-12-07T14:16:34;17.63;73.51
68450;SHT30;55434;39.570;2.652;2022-12-07T14:19:03;17.60;73.64
68450;SHT30;55434;39.570;2.652;2022-12-07T14:21:31;17.64;73.22
68450;SHT30;55434;39.570;2.652;2022-12-07T14:24:16;17.64;73.62
68450;SHT30;55434;39.570;2.652;2022-12-07T14:26:46;17.60;73.61
68450;SHT30;55434;39.570;2.652;2022-12-07T14:31:53;17.42;74.25
68450;SHT30;55434;39.570;2.652;2022-12-07T14:34:22;17.43;74.34
68450;SHT30;55434;39.570;2.652;2022-12-07T14:36:48;17.39;74.51
68450;SHT30;55434;39.570;2.652;2022-12-07T14:39:14;17.40;74.68
68450;SHT30;55434;39.570;2.652;2022-12-07T14:44:43;17.46;75.18
68450;SHT30;55434;39.570;2.652;2022-12-07T14:47:10;17.40;75.15
68450;SHT30;55434;39.570;2.652;2022-12-07T14:49:36;17.40;75.64
68450;SHT30;55434;39.570;2.652;2022-12-07T14:52:02;17.27;75.97
68450;SHT30;55434;39.570;2.652;2022-12-07T14:54:31;17.22;76.17
68450;SHT30;55434;39.570;2.652;2022-12-07T14:56:57;17.08;76.71
68450;SHT30;55434;39.570;2.652;2022-12-07T14:59:22;17.01;77.14
68450;SHT30;55434;39.570;2.652;2022-12-07T15:01:48;16.92;77.75
68450;SHT30;55434;39.570;2.652;2022-12-07T15:04:14;16.92;77.87
68450;SHT30;55434;39.570;2.652;2022-12-07T15:06:40;16.89;78.14
68450;SHT30;55434;39.570;2.652;2022-12-07T15:09:10;16.89;78.25
68450;SHT30;55434;39.570;2.652;2022-12-07T15:11:36;16.79;78.67
68450;SHT30;55434;39.570;2.652;2022-12-07T15:14:02;16.75;78.27
68450;SHT30;55434;39.570;2.652;2022-12-07T15:16:35;16.78;78.86
68450;SHT30;55434;39.570;2.652;2022-12-07T15:19:01;16.76;79.04
68450;SHT30;55434;39.570;2.652;2022-12-07T15:21:27;16.68;79.38
68450;SHT30;55434;39.570;2.652;2022-12-07T15:23:53;16.58;79.95
68450;SHT30;55434;39.570;2.652;2022-12-07T15:26:19;16.52;80.47
68450;SHT30;55434;39.570;2.652;2022-12-07T15:28:45;16.48;80.82
68450;SHT30;55434;39.570;2.652;2022-12-07T15:31:15;16.37;81.61
68450;SHT30;55434;39.570;2.652;2022-12-07T15:33:42;16.24;82.18
68450;SHT30;55434;39.570;2.652;2022-12-07T15:36:08;16.10;83.08
68450;SHT30;55434;39.570;2.652;2022-12-07T15:38:37;16.06;83.47
68450;SHT30;55434;39.570;2.652;2022-12-07T15:41:03;16.03;84.08
68450;SHT30;55434;39.570;2.652;2022-12-07T15:43:29;16.03;84.42
68450;SHT30;55434;39.570;2.652;2022-12-07T15:46:13;16.00;84.48
68450;SHT30;55434;39.570;2.652;2022-12-07T15:48:39;15.97;84.77
68450;SHT30;55434;39.570;2.652;2022-12-07T15:51:08;15.96;85.01
68450;SHT30;55434;39.570;2.652;2022-12-07T15:53:35;15.94;85.37
68450;SHT30;55434;39.570;2.652;2022-12-07T15:56:01;15.97;85.21
68450;SHT30;55434;39.570;2.652;2022-12-07T15:58:26;15.99;85.13
68450;SHT30;55434;39.570;2.652;2022-12-07T16:00:52;15.99;85.36
68450;SHT30;55434;39.570;2.652;2022-12-07T16:03:18;15.97;85.23
68450;SHT30;55434;39.570;2.652;2022-12-07T16:05:51;15.96;85.48
68450;SHT30;55434;39.570;2.652;2022-12-07T16:08:17;15.93;85.79
68450;SHT30;55434;39.570;2.652;2022-12-07T16:10:43;15.90;86.12
68450;SHT30;55434;39.570;2.652;2022-12-07T16:13:10;15.82;85.89
68450;SHT30;55434;39.570;2.652;2022-12-07T16:15:42;15.73;86.13
68450;SHT30;55434;39.570;2.652;2022-12-07T16:18:27;15.69;86.68
68450;SHT30;55434;39.570;2.652;2022-12-07T16:21:11;15.63;86.99
68450;SHT30;55434;39.570;2.652;2022-12-07T16:23:57;15.62;87.29
68450;SHT30;55434;39.570;2.652;2022-12-07T16:26:43;15.59;87.39
68450;SHT30;55434;39.570;2.652;2022-12-07T16:29:28;15.55;87.33
68450;SHT30;55434;39.570;2.652;2022-12-07T16:32:12;15.46;88.06
68450;SHT30;55434;39.570;2.652;2022-12-07T16:34:59;15.42;88.28
68450;SHT30;55434;39.570;2.652;2022-12-07T16:37:44;15.35;88.53
68450;SHT30;55434;39.570;2.652;2022-12-07T16:40:28;15.31;88.84
68450;SHT30;55434;39.570;2.652;2022-12-07T16:43:13;15.31;88.90
68450;SHT30;55434;39.570;2.652;2022-12-07T16:45:57;15.35;88.83
68450;SHT30;55434;39.570;2.652;2022-12-07T16:48:42;15.32;88.79
68450;SHT30;55434;39.570;2.652;2022-12-07T16:51:26;15.24;89.06
68450;SHT30;55434;39.570;2.652;2022-12-07T16:54:12;15.31;88.75
68450;SHT30;55434;39.570;2.652;2022-12-07T16:56:56;15.31;88.67
68450;SHT30;55434;39.570;2.652;2022-12-07T16:59:40;15.36;88.37
68450;SHT30;55434;39.570;2.652;2022-12-07T17:02:24;15.39;87.79
68450;SHT30;55434;39.570;2.652;2022-12-07T17:05:09;15.42;87.81
68450;SHT30;55434;39.570;2.652;2022-12-07T17:07:52;15.39;88.15
68450;SHT30;55434;39.570;2.652;2022-12-07T17:10:41;15.39;88.11
68450;SHT30;55434;39.570;2.652;2022-12-07T17:13:27;15.46;88.04
68450;SHT30;55434;39.570;2.652;2022-12-07T17:16:30;15.46;87.42
68450;SHT30;55434;39.570;2.652;2022-12-07T17:18:55;15.49;87.48
68450;SHT30;55434;39.570;2.652;2022-12-07T17:21:21;15.45;87.46
68450;SHT30;55434;39.570;2.652;2022-12-07T17:23:48;15.48;87.77
68450;SHT30;55434;39.570;2.652;2022-12-07T17:26:21;15.45;87.93
68450;SHT30;55434;39.570;2.652;2022-12-07T17:28:47;15.49;88.05
68450;SHT30;55434;39.570;2.652;2022-12-07T17:31:15;15.48;88.07
68450;SHT30;55434;39.570;2.652;2022-12-07T17:33:41;15.52;88.09
68450;SHT30;55434;39.570;2.652;2022-12-07T17:36:22;15.56;88.19
68450;SHT30;55434;39.570;2.652;2022-12-07T17:38:48;15.55;88.10
68450;SHT30;55434;39.570;2.652;2022-12-07T17:41:27;15.58;87.99
68450;SHT30;55434;39.570;2.652;2022-12-07T17:44:14;15.59;88.07
68450;SHT30;55434;39.570;2.652;2022-12-07T17:46:40;15.62;87.90
68450;SHT30;55434;39.570;2.652;2022-12-07T17:49:06;15.63;87.98
68450;SHT30;55434;39.570;2.652;2022-12-07T17:51:31;15.69;87.94
68450;SHT30;55434;39.570;2.652;2022-12-07T17:54:16;15.67;87.62
68450;SHT30;55434;39.570;2.652;2022-12-07T17:56:42;15.67;87.87